sensor_id;sensor_type;location;lat;lon;timestamp;P1;durP1;ratioP1;P2;durP2;ratioP2
33993;SDS011;20673;48.980;8.138;2022-08-25T00:01:13;4.00;;;3.35;;
33993;SDS011;20673;48.980;8.138;2022-08-25T00:03:43;3.10;;;2.80;;
33993;SDS011;20673;48.980;8.138;2022-08-25T00:06:10;3.60;;;2.83;;
33993;SDS011;20673;48.980;8.138;2022-08-25T00:08:37;3.62;;;3.33;;
33993;SDS011;20673;48.980;8.138;2022-08-25T00:11:05;4.60;;;2.95;;
33993;SDS011;20673;48.980;8.138;2022-08-25T00:13:33;3.17;;;2.83;;
33993;SDS011;20673;48.980;8.138;2022-08-25T00:15:59;4.00;;;3.17;;
33993;SDS011;20673;48.980;8.138;2022-08-25T00:18:26;4.70;;;3.25;;
33993;SDS011;20673;48.980;8.138;2022-08-25T00:20:52;4.62;;;3.15;;
33993;SDS011;20673;48.980;8.138;2022-08-25T00:23:18;7.58;;;3.20;;
33993;SDS011;20673;48.980;8.138;2022-08-25T00:25:45;3.30;;;2.95;;
33993;SDS011;20673;48.980;8.138;2022-08-25T00:28:12;4.08;;;3.05;;
33993;SDS011;20673;48.980;8.138;2022-08-25T00:30:40;4.28;;;3.25;;
33993;SDS011;20673;48.980;8.138;2022-08-25T00:33:07;4.22;;;3.10;;
33993;SDS011;20673;48.980;8.138;2022-08-25T00:35:33;3.37;;;3.08;;
33993;SDS011;20673;48.980;8.138;2022-08-25T00:38:00;4.03;;;3.53;;
33993;SDS011;20673;48.980;8.138;2022-08-25T00:40:27;3.70;;;3.40;;
33993;SDS011;20673;48.980;8.138;2022-08-25T00:42:54;3.60;;;3.30;;
33993;SDS011;20673;48.980;8.138;2022-08-25T00:45:21;4.20;;;3.20;;
33993;SDS011;20673;48.980;8.138;2022-08-25T00:47:48;3.80;;;3.20;;
33993;SDS011;20673;48.980;8.138;2022-08-25T00:50:14;4.75;;;3.25;;
33993;SDS011;20673;48.980;8.138;2022-08-25T00:52:46;3.50;;;3.20;;
33993;SDS011;20673;48.980;8.138;2022-08-25T00:55:30;4.05;;;3.27;;
33993;SDS011;20673;48.980;8.138;2022-08-25T00:58:02;3.37;;;3.05;;
33993;SDS011;20673;48.980;8.138;2022-08-25T01:00:41;3.20;;;2.90;;
33993;SDS011;20673;48.980;8.138;2022-08-25T01:03:11;4.92;;;3.55;;
33993;SDS011;20673;48.980;8.138;2022-08-25T01:05:38;3.92;;;3.60;;
33993;SDS011;20673;48.980;8.138;2022-08-25T01:08:08;6.35;;;3.05;;
33993;SDS011;20673;48.980;8.138;2022-08-25T01:10:35;8.20;;;3.52;;
33993;SDS011;20673;48.980;8.138;2022-08-25T01:13:08;4.75;;;3.42;;
33993;SDS011;20673;48.980;8.138;2022-08-25T01:15:54;3.53;;;3.23;;
33993;SDS011;20673;48.980;8.138;2022-08-25T01:18:22;4.25;;;3.15;;
33993;SDS011;20673;48.980;8.138;2022-08-25T01:20:50;3.95;;;3.45;;
33993;SDS011;20673;48.980;8.138;2022-08-25T01:23:18;4.35;;;3.37;;
33993;SDS011;20673;48.980;8.138;2022-08-25T01:28:25;3.58;;;3.27;;
33993;SDS011;20673;48.980;8.138;2022-08-25T01:30:51;4.30;;;3.58;;
33993;SDS011;20673;48.980;8.138;2022-08-25T01:33:18;4.33;;;2.85;;
33993;SDS011;20673;48.980;8.138;2022-08-25T01:35:45;5.58;;;3.45;;
33993;SDS011;20673;48.980;8.138;2022-08-25T01:38:12;3.30;;;3.00;;
33993;SDS011;20673;48.980;8.138;2022-08-25T01:40:39;4.83;;;3.52;;
33993;SDS011;20673;48.980;8.138;2022-08-25T01:45:53;6.50;;;3.33;;
33993;SDS011;20673;48.980;8.138;2022-08-25T01:48:19;4.22;;;3.83;;
33993;SDS011;20673;48.980;8.138;2022-08-25T01:50:45;3.37;;;3.08;;
33993;SDS011;20673;48.980;8.138;2022-08-25T01:53:18;3.75;;;3.45;;
33993;SDS011;20673;48.980;8.138;2022-08-25T01:55:54;4.40;;;3.12;;
33993;SDS011;20673;48.980;8.138;2022-08-25T01:58:34;4.28;;;3.77;;
33993;SDS011;20673;48.980;8.138;2022-08-25T02:01:01;4.03;;;3.25;;
33993;SDS011;20673;48.980;8.138;2022-08-25T02:03:31;6.93;;;3.57;;
33993;SDS011;20673;48.980;8.138;2022-08-25T02:05:59;4.05;;;3.67;;
33993;SDS011;20673;48.980;8.138;2022-08-25T02:08:26;5.55;;;2.98;;
33993;SDS011;20673;48.980;8.138;2022-08-25T02:10:52;4.60;;;3.30;;
33993;SDS011;20673;48.980;8.138;2022-08-25T02:13:20;3.37;;;3.12;;
33993;SDS011;20673;48.980;8.138;2022-08-25T02:15:48;5.03;;;3.52;;
33993;SDS011;20673;48.980;8.138;2022-08-25T02:18:19;4.30;;;3.50;;
33993;SDS011;20673;48.980;8.138;2022-08-25T02:20:46;3.85;;;3.50;;
33993;SDS011;20673;48.980;8.138;2022-08-25T02:23:12;4.58;;;3.33;;
33993;SDS011;20673;48.980;8.138;2022-08-25T02:25:40;5.65;;;2.98;;
33993;SDS011;20673;48.980;8.138;2022-08-25T02:28:08;4.58;;;3.35;;
33993;SDS011;20673;48.980;8.138;2022-08-25T02:30:35;3.90;;;3.52;;
33993;SDS011;20673;48.980;8.138;2022-08-25T02:33:04;6.37;;;3.67;;
33993;SDS011;20673;48.980;8.138;2022-08-25T02:35:31;5.47;;;3.52;;
33993;SDS011;20673;48.980;8.138;2022-08-25T02:37:57;4.87;;;3.83;;
33993;SDS011;20673;48.980;8.138;2022-08-25T02:40:23;5.87;;;4.03;;
33993;SDS011;20673;48.980;8.138;2022-08-25T02:42:50;3.50;;;3.20;;
33993;SDS011;20673;48.980;8.138;2022-08-25T02:45:16;5.30;;;3.70;;
33993;SDS011;20673;48.980;8.138;2022-08-25T02:47:43;4.10;;;3.70;;
33993;SDS011;20673;48.980;8.138;2022-08-25T02:50:10;3.70;;;3.08;;
33993;SDS011;20673;48.980;8.138;2022-08-25T02:52:37;5.47;;;3.55;;
33993;SDS011;20673;48.980;8.138;2022-08-25T02:55:06;4.28;;;3.77;;
33993;SDS011;20673;48.980;8.138;2022-08-25T02:57:37;5.67;;;3.87;;
33993;SDS011;20673;48.980;8.138;2022-08-25T03:00:03;5.30;;;3.35;;
33993;SDS011;20673;48.980;8.138;2022-08-25T03:02:31;4.25;;;3.25;;
33993;SDS011;20673;48.980;8.138;2022-08-25T03:04:57;4.90;;;3.90;;
33993;SDS011;20673;48.980;8.138;2022-08-25T03:07:23;5.22;;;4.05;;
33993;SDS011;20673;48.980;8.138;2022-08-25T03:09:49;4.30;;;3.90;;
33993;SDS011;20673;48.980;8.138;2022-08-25T03:12:16;4.25;;;3.85;;
33993;SDS011;20673;48.980;8.138;2022-08-25T03:14:42;5.62;;;3.80;;
33993;SDS011;20673;48.980;8.138;2022-08-25T03:17:08;7.85;;;4.40;;
33993;SDS011;20673;48.980;8.138;2022-08-25T03:19:34;6.45;;;4.05;;
33993;SDS011;20673;48.980;8.138;2022-08-25T03:22:00;5.33;;;4.05;;
33993;SDS011;20673;48.980;8.138;2022-08-25T03:24:27;4.22;;;3.60;;
33993;SDS011;20673;48.980;8.138;2022-08-25T03:26:53;5.12;;;4.00;;
33993;SDS011;20673;48.980;8.138;2022-08-25T03:29:21;4.25;;;3.90;;
33993;SDS011;20673;48.980;8.138;2022-08-25T03:31:51;4.30;;;3.90;;
33993;SDS011;20673;48.980;8.138;2022-08-25T03:34:19;4.30;;;3.67;;
33993;SDS011;20673;48.980;8.138;2022-08-25T03:36:48;3.90;;;3.25;;
33993;SDS011;20673;48.980;8.138;2022-08-25T03:39:17;3.90;;;3.60;;
33993;SDS011;20673;48.980;8.138;2022-08-25T03:41:46;4.30;;;3.90;;
33993;SDS011;20673;48.980;8.138;2022-08-25T03:44:14;4.20;;;3.80;;
33993;SDS011;20673;48.980;8.138;2022-08-25T03:46:43;6.63;;;3.97;;
33993;SDS011;20673;48.980;8.138;2022-08-25T03:49:13;6.12;;;4.17;;
33993;SDS011;20673;48.980;8.138;2022-08-25T03:51:48;4.95;;;4.30;;
33993;SDS011;20673;48.980;8.138;2022-08-25T03:54:15;5.87;;;4.28;;
33993;SDS011;20673;48.980;8.138;2022-08-25T03:56:45;4.97;;;4.47;;
33993;SDS011;20673;48.980;8.138;2022-08-25T03:59:11;9.65;;;4.12;;
33993;SDS011;20673;48.980;8.138;2022-08-25T04:01:38;4.65;;;4.20;;
33993;SDS011;20673;48.980;8.138;2022-08-25T04:04:07;4.28;;;3.65;;
33993;SDS011;20673;48.980;8.138;2022-08-25T04:06:36;6.92;;;4.08;;
33993;SDS011;20673;48.980;8.138;2022-08-25T04:09:04;4.30;;;3.90;;
33993;SDS011;20673;48.980;8.138;2022-08-25T04:11:30;5.00;;;4.25;;
33993;SDS011;20673;48.980;8.138;2022-08-25T04:13:57;6.47;;;4.23;;
33993;SDS011;20673;48.980;8.138;2022-08-25T04:16:27;6.55;;;4.05;;
33993;SDS011;20673;48.980;8.138;2022-08-25T04:18:56;4.40;;;4.00;;
33993;SDS011;20673;48.980;8.138;2022-08-25T04:21:26;4.73;;;3.80;;
33993;SDS011;20673;48.980;8.138;2022-08-25T04:23:54;4.20;;;3.80;;
33993;SDS011;20673;48.980;8.138;2022-08-25T04:26:22;5.72;;;4.12;;
33993;SDS011;20673;48.980;8.138;2022-08-25T04:28:55;5.67;;;4.73;;
33993;SDS011;20673;48.980;8.138;2022-08-25T04:31:26;5.10;;;4.60;;
33993;SDS011;20673;48.980;8.138;2022-08-25T04:33:53;7.13;;;4.50;;
33993;SDS011;20673;48.980;8.138;2022-08-25T04:36:21;4.72;;;4.33;;
33993;SDS011;20673;48.980;8.138;2022-08-25T04:38:48;4.87;;;4.37;;
33993;SDS011;20673;48.980;8.138;2022-08-25T04:41:15;7.60;;;5.10;;
33993;SDS011;20673;48.980;8.138;2022-08-25T04:43:45;8.65;;;5.75;;
33993;SDS011;20673;48.980;8.138;2022-08-25T04:46:15;5.22;;;4.55;;
33993;SDS011;20673;48.980;8.138;2022-08-25T04:48:45;5.25;;;4.72;;
33993;SDS011;20673;48.980;8.138;2022-08-25T04:51:14;5.30;;;4.80;;
33993;SDS011;20673;48.980;8.138;2022-08-25T04:53:44;6.28;;;5.12;;
33993;SDS011;20673;48.980;8.138;2022-08-25T04:56:12;5.30;;;4.80;;
33993;SDS011;20673;48.980;8.138;2022-08-25T04:58:41;5.93;;;5.10;;
33993;SDS011;20673;48.980;8.138;2022-08-25T05:01:09;5.10;;;4.65;;
33993;SDS011;20673;48.980;8.138;2022-08-25T05:03:40;8.23;;;4.75;;
33993;SDS011;20673;48.980;8.138;2022-08-25T05:06:08;5.62;;;4.70;;
33993;SDS011;20673;48.980;8.138;2022-08-25T05:08:34;6.40;;;5.40;;
33993;SDS011;20673;48.980;8.138;2022-08-25T05:11:07;5.97;;;4.60;;
33993;SDS011;20673;48.980;8.138;2022-08-25T05:13:37;5.53;;;4.92;;
33993;SDS011;20673;48.980;8.138;2022-08-25T05:16:04;6.15;;;4.92;;
33993;SDS011;20673;48.980;8.138;2022-08-25T05:18:31;6.35;;;4.90;;
33993;SDS011;20673;48.980;8.138;2022-08-25T05:21:00;6.42;;;5.03;;
33993;SDS011;20673;48.980;8.138;2022-08-25T05:23:29;10.72;;;5.70;;
33993;SDS011;20673;48.980;8.138;2022-08-25T05:25:59;6.03;;;5.42;;
33993;SDS011;20673;48.980;8.138;2022-08-25T05:28:37;6.85;;;5.30;;
33993;SDS011;20673;48.980;8.138;2022-08-25T05:31:06;6.37;;;5.25;;
33993;SDS011;20673;48.980;8.138;2022-08-25T05:33:35;7.62;;;5.92;;
33993;SDS011;20673;48.980;8.138;2022-08-25T05:36:02;7.50;;;5.50;;
33993;SDS011;20673;48.980;8.138;2022-08-25T05:38:30;6.17;;;5.45;;
33993;SDS011;20673;48.980;8.138;2022-08-25T05:41:03;7.30;;;5.78;;
33993;SDS011;20673;48.980;8.138;2022-08-25T05:43:28;8.55;;;5.75;;
33993;SDS011;20673;48.980;8.138;2022-08-25T05:45:56;6.95;;;6.25;;
33993;SDS011;20673;48.980;8.138;2022-08-25T05:48:23;9.18;;;5.70;;
33993;SDS011;20673;48.980;8.138;2022-08-25T05:50:52;7.80;;;5.97;;
33993;SDS011;20673;48.980;8.138;2022-08-25T05:53:21;7.27;;;5.57;;
33993;SDS011;20673;48.980;8.138;2022-08-25T05:55:50;7.42;;;5.58;;
33993;SDS011;20673;48.980;8.138;2022-08-25T05:58:18;8.93;;;6.62;;
33993;SDS011;20673;48.980;8.138;2022-08-25T06:00:46;7.97;;;5.67;;
33993;SDS011;20673;48.980;8.138;2022-08-25T06:03:12;7.10;;;6.40;;
33993;SDS011;20673;48.980;8.138;2022-08-25T06:05:38;7.83;;;6.03;;
33993;SDS011;20673;48.980;8.138;2022-08-25T06:08:05;7.07;;;5.97;;
33993;SDS011;20673;48.980;8.138;2022-08-25T06:10:32;9.57;;;5.87;;
33993;SDS011;20673;48.980;8.138;2022-08-25T06:12:59;7.50;;;6.30;;
33993;SDS011;20673;48.980;8.138;2022-08-25T06:15:26;7.00;;;5.87;;
33993;SDS011;20673;48.980;8.138;2022-08-25T06:17:53;9.13;;;5.60;;
33993;SDS011;20673;48.980;8.138;2022-08-25T06:20:21;7.77;;;6.70;;
33993;SDS011;20673;48.980;8.138;2022-08-25T06:22:51;7.07;;;5.90;;
33993;SDS011;20673;48.980;8.138;2022-08-25T06:25:19;7.60;;;6.50;;
33993;SDS011;20673;48.980;8.138;2022-08-25T06:27:49;7.15;;;6.45;;
33993;SDS011;20673;48.980;8.138;2022-08-25T06:30:16;7.17;;;6.47;;
33993;SDS011;20673;48.980;8.138;2022-08-25T06:32:45;9.58;;;6.08;;
33993;SDS011;20673;48.980;8.138;2022-08-25T06:35:14;6.80;;;6.17;;
33993;SDS011;20673;48.980;8.138;2022-08-25T06:37:44;6.90;;;5.70;;
33993;SDS011;20673;48.980;8.138;2022-08-25T06:40:11;6.37;;;5.67;;
33993;SDS011;20673;48.980;8.138;2022-08-25T06:42:39;10.90;;;6.03;;
33993;SDS011;20673;48.980;8.138;2022-08-25T06:45:06;9.67;;;6.00;;
33993;SDS011;20673;48.980;8.138;2022-08-25T06:47:34;6.30;;;5.70;;
33993;SDS011;20673;48.980;8.138;2022-08-25T06:50:00;7.22;;;6.10;;
33993;SDS011;20673;48.980;8.138;2022-08-25T06:52:28;8.23;;;6.13;;
33993;SDS011;20673;48.980;8.138;2022-08-25T06:54:54;6.28;;;5.62;;
33993;SDS011;20673;48.980;8.138;2022-08-25T06:57:21;7.97;;;5.95;;
33993;SDS011;20673;48.980;8.138;2022-08-25T06:59:47;10.00;;;6.53;;
33993;SDS011;20673;48.980;8.138;2022-08-25T07:02:13;6.50;;;5.87;;
33993;SDS011;20673;48.980;8.138;2022-08-25T07:04:39;7.33;;;6.20;;
33993;SDS011;20673;48.980;8.138;2022-08-25T07:07:05;10.58;;;6.08;;
33993;SDS011;20673;48.980;8.138;2022-08-25T07:09:32;7.25;;;5.92;;
33993;SDS011;20673;48.980;8.138;2022-08-25T07:11:58;6.78;;;5.17;;
33993;SDS011;20673;48.980;8.138;2022-08-25T07:14:26;7.20;;;6.12;;
33993;SDS011;20673;48.980;8.138;2022-08-25T07:16:53;7.72;;;6.10;;
33993;SDS011;20673;48.980;8.138;2022-08-25T07:19:19;7.60;;;6.35;;
33993;SDS011;20673;48.980;8.138;2022-08-25T07:21:45;5.75;;;5.15;;
33993;SDS011;20673;48.980;8.138;2022-08-25T07:24:15;8.20;;;5.65;;
33993;SDS011;20673;48.980;8.138;2022-08-25T07:26:41;6.85;;;6.15;;
33993;SDS011;20673;48.980;8.138;2022-08-25T07:29:16;6.83;;;5.42;;
33993;SDS011;20673;48.980;8.138;2022-08-25T07:31:48;8.93;;;6.37;;
33993;SDS011;20673;48.980;8.138;2022-08-25T07:34:15;9.33;;;5.83;;
33993;SDS011;20673;48.980;8.138;2022-08-25T07:37:00;9.98;;;6.33;;
33993;SDS011;20673;48.980;8.138;2022-08-25T07:39:29;6.45;;;5.83;;
33993;SDS011;20673;48.980;8.138;2022-08-25T07:41:58;10.23;;;6.12;;
33993;SDS011;20673;48.980;8.138;2022-08-25T07:44:25;6.33;;;5.37;;
33993;SDS011;20673;48.980;8.138;2022-08-25T07:46:52;7.95;;;5.53;;
33993;SDS011;20673;48.980;8.138;2022-08-25T07:49:19;9.20;;;6.10;;
33993;SDS011;20673;48.980;8.138;2022-08-25T07:51:47;7.33;;;6.28;;
33993;SDS011;20673;48.980;8.138;2022-08-25T07:54:13;8.88;;;6.10;;
33993;SDS011;20673;48.980;8.138;2022-08-25T07:56:39;9.58;;;5.97;;
33993;SDS011;20673;48.980;8.138;2022-08-25T07:59:08;6.75;;;5.75;;
33993;SDS011;20673;48.980;8.138;2022-08-25T08:01:35;6.37;;;5.80;;
33993;SDS011;20673;48.980;8.138;2022-08-25T08:04:02;6.15;;;5.50;;
33993;SDS011;20673;48.980;8.138;2022-08-25T08:06:29;6.33;;;5.72;;
33993;SDS011;20673;48.980;8.138;2022-08-25T08:08:55;8.60;;;5.45;;
33993;SDS011;20673;48.980;8.138;2022-08-25T08:11:24;7.30;;;6.15;;
33993;SDS011;20673;48.980;8.138;2022-08-25T08:13:59;7.40;;;5.33;;
33993;SDS011;20673;48.980;8.138;2022-08-25T08:16:27;9.43;;;5.90;;
33993;SDS011;20673;48.980;8.138;2022-08-25T08:18:55;5.22;;;4.72;;
33993;SDS011;20673;48.980;8.138;2022-08-25T08:21:28;6.83;;;5.10;;
33993;SDS011;20673;48.980;8.138;2022-08-25T08:23:55;6.40;;;5.40;;
33993;SDS011;20673;48.980;8.138;2022-08-25T08:26:21;6.58;;;5.87;;
33993;SDS011;20673;48.980;8.138;2022-08-25T08:28:49;6.12;;;5.58;;
33993;SDS011;20673;48.980;8.138;2022-08-25T08:31:17;6.20;;;5.55;;
33993;SDS011;20673;48.980;8.138;2022-08-25T08:33:45;6.95;;;5.37;;
33993;SDS011;20673;48.980;8.138;2022-08-25T08:36:13;5.55;;;4.95;;
33993;SDS011;20673;48.980;8.138;2022-08-25T08:38:40;6.95;;;5.60;;
33993;SDS011;20673;48.980;8.138;2022-08-25T08:54:09;5.58;;;4.97;;
33993;SDS011;20673;48.980;8.138;2022-08-25T08:56:08;7.33;;;5.62;;
33993;SDS011;20673;48.980;8.138;2022-08-25T09:01:24;7.97;;;6.10;;
33993;SDS011;20673;48.980;8.138;2022-08-25T09:04:14;6.83;;;5.67;;
33993;SDS011;20673;48.980;8.138;2022-08-25T09:06:47;10.70;;;5.62;;
33993;SDS011;20673;48.980;8.138;2022-08-25T09:09:17;5.78;;;5.20;;
33993;SDS011;20673;48.980;8.138;2022-08-25T09:12:01;7.87;;;5.47;;
33993;SDS011;20673;48.980;8.138;2022-08-25T09:20:58;5.45;;;4.95;;
33993;SDS011;20673;48.980;8.138;2022-08-25T09:23:39;6.03;;;5.10;;
33993;SDS011;20673;48.980;8.138;2022-08-25T09:26:27;7.22;;;5.42;;
33993;SDS011;20673;48.980;8.138;2022-08-25T09:29:02;5.90;;;4.72;;
33993;SDS011;20673;48.980;8.138;2022-08-25T09:31:41;6.33;;;5.30;;
33993;SDS011;20673;48.980;8.138;2022-08-25T09:34:12;5.72;;;5.10;;
33993;SDS011;20673;48.980;8.138;2022-08-25T09:36:47;5.42;;;4.55;;
33993;SDS011;20673;48.980;8.138;2022-08-25T09:39:16;5.12;;;4.65;;
33993;SDS011;20673;48.980;8.138;2022-08-25T09:44:24;5.90;;;5.28;;
33993;SDS011;20673;48.980;8.138;2022-08-25T09:47:02;5.22;;;4.72;;
33993;SDS011;20673;48.980;8.138;2022-08-25T09:49:37;5.12;;;4.62;;
33993;SDS011;20673;48.980;8.138;2022-08-25T09:52:32;7.90;;;5.25;;
33993;SDS011;20673;48.980;8.138;2022-08-25T09:55:00;4.90;;;4.50;;
33993;SDS011;20673;48.980;8.138;2022-08-25T10:00:21;5.42;;;4.53;;
33993;SDS011;20673;48.980;8.138;2022-08-25T10:14:06;6.20;;;4.37;;
33993;SDS011;20673;48.980;8.138;2022-08-25T10:16:46;9.68;;;4.33;;
33993;SDS011;20673;48.980;8.138;2022-08-25T10:19:27;5.72;;;4.62;;
33993;SDS011;20673;48.980;8.138;2022-08-25T10:22:05;5.80;;;5.08;;
33993;SDS011;20673;48.980;8.138;2022-08-25T10:24:33;4.35;;;3.92;;
33993;SDS011;20673;48.980;8.138;2022-08-25T10:27:09;4.83;;;4.20;;
33993;SDS011;20673;48.980;8.138;2022-08-25T10:35:41;4.33;;;3.72;;
33993;SDS011;20673;48.980;8.138;2022-08-25T10:40:59;4.25;;;3.85;;
33993;SDS011;20673;48.980;8.138;2022-08-25T10:43:46;4.25;;;3.85;;
33993;SDS011;20673;48.980;8.138;2022-08-25T10:46:28;5.15;;;4.03;;
33993;SDS011;20673;48.980;8.138;2022-08-25T10:49:12;4.35;;;3.87;;
33993;SDS011;20673;48.980;8.138;2022-08-25T10:51:52;6.30;;;4.20;;
33993;SDS011;20673;48.980;8.138;2022-08-25T11:00:53;4.33;;;3.92;;
33993;SDS011;20673;48.980;8.138;2022-08-25T11:06:20;4.97;;;3.60;;
33993;SDS011;20673;48.980;8.138;2022-08-25T11:08:49;8.13;;;4.08;;
33993;SDS011;20673;48.980;8.138;2022-08-25T11:14:01;6.45;;;4.17;;
33993;SDS011;20673;48.980;8.138;2022-08-25T11:16:42;4.65;;;3.85;;
33993;SDS011;20673;48.980;8.138;2022-08-25T11:19:43;5.20;;;4.25;;
33993;SDS011;20673;48.980;8.138;2022-08-25T11:22:34;5.35;;;3.98;;
33993;SDS011;20673;48.980;8.138;2022-08-25T11:30:58;4.12;;;3.72;;
33993;SDS011;20673;48.980;8.138;2022-08-25T11:33:27;4.62;;;4.20;;
33993;SDS011;20673;48.980;8.138;2022-08-25T11:35:56;4.85;;;3.60;;
33993;SDS011;20673;48.980;8.138;2022-08-25T11:38:34;6.12;;;4.25;;
33993;SDS011;20673;48.980;8.138;2022-08-25T11:44:11;4.67;;;4.25;;
33993;SDS011;20673;48.980;8.138;2022-08-25T11:49:54;5.22;;;3.70;;
33993;SDS011;20673;48.980;8.138;2022-08-25T11:52:43;4.85;;;4.35;;
33993;SDS011;20673;48.980;8.138;2022-08-25T11:55:15;5.85;;;4.03;;
33993;SDS011;20673;48.980;8.138;2022-08-25T11:57:47;4.40;;;4.00;;
33993;SDS011;20673;48.980;8.138;2022-08-25T12:17:04;4.25;;;3.85;;
33993;SDS011;20673;48.980;8.138;2022-08-25T12:19:52;8.75;;;4.05;;
33993;SDS011;20673;48.980;8.138;2022-08-25T12:25:03;4.40;;;4.00;;
33993;SDS011;20673;48.980;8.138;2022-08-25T12:36:00;4.67;;;3.98;;
33993;SDS011;20673;48.980;8.138;2022-08-25T12:38:37;4.25;;;3.85;;
33993;SDS011;20673;48.980;8.138;2022-08-25T12:41:17;4.12;;;3.72;;
33993;SDS011;20673;48.980;8.138;2022-08-25T12:43:49;3.92;;;3.62;;
33993;SDS011;20673;48.980;8.138;2022-08-25T12:48:55;4.42;;;3.83;;
33993;SDS011;20673;48.980;8.138;2022-08-25T12:54:21;4.15;;;3.75;;
33993;SDS011;20673;48.980;8.138;2022-08-25T12:57:00;4.00;;;3.60;;
33993;SDS011;20673;48.980;8.138;2022-08-25T12:59:32;3.90;;;3.60;;
33993;SDS011;20673;48.980;8.138;2022-08-25T13:05:12;4.40;;;4.00;;
33993;SDS011;20673;48.980;8.138;2022-08-25T13:16:06;6.22;;;3.83;;
33993;SDS011;20673;48.980;8.138;2022-08-25T13:18:37;4.05;;;3.50;;
33993;SDS011;20673;48.980;8.138;2022-08-25T13:21:09;4.70;;;4.22;;
33993;SDS011;20673;48.980;8.138;2022-08-25T13:24:00;4.55;;;4.10;;
33993;SDS011;20673;48.980;8.138;2022-08-25T13:31:55;4.70;;;4.12;;
33993;SDS011;20673;48.980;8.138;2022-08-25T13:34:35;3.70;;;3.40;;
33993;SDS011;20673;48.980;8.138;2022-08-25T13:37:07;3.98;;;3.55;;
33993;SDS011;20673;48.980;8.138;2022-08-25T13:40:06;6.92;;;4.10;;
33993;SDS011;20673;48.980;8.138;2022-08-25T13:42:43;4.12;;;3.72;;
33993;SDS011;20673;48.980;8.138;2022-08-25T13:45:15;7.97;;;3.58;;
33993;SDS011;20673;48.980;8.138;2022-08-25T13:47:46;3.70;;;3.40;;
33993;SDS011;20673;48.980;8.138;2022-08-25T13:53:00;3.90;;;3.50;;
33993;SDS011;20673;48.980;8.138;2022-08-25T13:55:35;5.17;;;3.80;;
33993;SDS011;20673;48.980;8.138;2022-08-25T13:58:13;6.20;;;4.10;;
33993;SDS011;20673;48.980;8.138;2022-08-25T14:00:58;5.58;;;4.20;;
33993;SDS011;20673;48.980;8.138;2022-08-25T14:06:06;4.55;;;3.90;;
33993;SDS011;20673;48.980;8.138;2022-08-25T14:11:47;5.05;;;4.55;;
33993;SDS011;20673;48.980;8.138;2022-08-25T14:19:32;4.22;;;3.77;;
33993;SDS011;20673;48.980;8.138;2022-08-25T14:22:01;4.42;;;3.47;;
33993;SDS011;20673;48.980;8.138;2022-08-25T14:24:33;4.45;;;3.80;;
33993;SDS011;20673;48.980;8.138;2022-08-25T14:27:00;5.12;;;4.62;;
33993;SDS011;20673;48.980;8.138;2022-08-25T14:29:28;4.85;;;4.10;;
33993;SDS011;20673;48.980;8.138;2022-08-25T14:31:56;5.45;;;3.83;;
33993;SDS011;20673;48.980;8.138;2022-08-25T14:34:25;5.10;;;4.00;;
33993;SDS011;20673;48.980;8.138;2022-08-25T14:39:23;4.20;;;3.90;;
33993;SDS011;20673;48.980;8.138;2022-08-25T14:41:50;4.10;;;3.70;;
33993;SDS011;20673;48.980;8.138;2022-08-25T14:44:16;5.12;;;4.10;;
33993;SDS011;20673;48.980;8.138;2022-08-25T14:46:44;4.95;;;4.25;;
33993;SDS011;20673;48.980;8.138;2022-08-25T14:49:24;4.50;;;4.10;;
33993;SDS011;20673;48.980;8.138;2022-08-25T14:51:48;4.25;;;3.85;;
33993;SDS011;20673;48.980;8.138;2022-08-25T14:54:14;4.45;;;4.03;;
33993;SDS011;20673;48.980;8.138;2022-08-25T14:56:43;6.35;;;3.58;;
33993;SDS011;20673;48.980;8.138;2022-08-25T14:59:12;5.28;;;4.22;;
33993;SDS011;20673;48.980;8.138;2022-08-25T15:01:39;4.55;;;4.15;;
33993;SDS011;20673;48.980;8.138;2022-08-25T15:04:13;4.50;;;4.08;;
33993;SDS011;20673;48.980;8.138;2022-08-25T15:06:43;4.60;;;4.20;;
33993;SDS011;20673;48.980;8.138;2022-08-25T15:09:11;4.12;;;3.83;;
33993;SDS011;20673;48.980;8.138;2022-08-25T15:11:45;4.37;;;3.85;;
33993;SDS011;20673;48.980;8.138;2022-08-25T15:14:14;4.45;;;4.05;;
33993;SDS011;20673;48.980;8.138;2022-08-25T15:16:44;4.40;;;4.00;;
33993;SDS011;20673;48.980;8.138;2022-08-25T15:21:42;4.42;;;4.03;;
33993;SDS011;20673;48.980;8.138;2022-08-25T15:24:11;4.05;;;3.65;;
33993;SDS011;20673;48.980;8.138;2022-08-25T15:26:41;4.28;;;3.98;;
33993;SDS011;20673;48.980;8.138;2022-08-25T15:29:11;3.92;;;3.62;;
33993;SDS011;20673;48.980;8.138;2022-08-25T15:31:37;4.58;;;4.17;;
33993;SDS011;20673;48.980;8.138;2022-08-25T15:34:07;5.17;;;3.98;;
33993;SDS011;20673;48.980;8.138;2022-08-25T15:36:34;4.42;;;4.00;;
33993;SDS011;20673;48.980;8.138;2022-08-25T15:39:02;3.87;;;3.52;;
33993;SDS011;20673;48.980;8.138;2022-08-25T15:41:30;5.45;;;3.80;;
33993;SDS011;20673;48.980;8.138;2022-08-25T15:43:57;4.17;;;3.75;;
33993;SDS011;20673;48.980;8.138;2022-08-25T15:46:25;6.55;;;4.08;;
33993;SDS011;20673;48.980;8.138;2022-08-25T15:48:55;4.40;;;4.00;;
33993;SDS011;20673;48.980;8.138;2022-08-25T15:51:24;4.97;;;3.85;;
33993;SDS011;20673;48.980;8.138;2022-08-25T15:53:51;4.87;;;4.37;;
33993;SDS011;20673;48.980;8.138;2022-08-25T15:56:18;4.90;;;4.05;;
33993;SDS011;20673;48.980;8.138;2022-08-25T15:58:45;3.95;;;3.62;;
33993;SDS011;20673;48.980;8.138;2022-08-25T16:01:13;4.75;;;3.65;;
33993;SDS011;20673;48.980;8.138;2022-08-25T16:03:46;3.50;;;3.20;;
33993;SDS011;20673;48.980;8.138;2022-08-25T16:06:12;4.50;;;3.35;;
33993;SDS011;20673;48.980;8.138;2022-08-25T16:08:38;3.52;;;3.22;;
33993;SDS011;20673;48.980;8.138;2022-08-25T16:11:05;4.55;;;3.52;;
33993;SDS011;20673;48.980;8.138;2022-08-25T16:13:33;4.65;;;3.83;;
33993;SDS011;20673;48.980;8.138;2022-08-25T16:15:59;3.58;;;3.27;;
33993;SDS011;20673;48.980;8.138;2022-08-25T16:18:25;4.95;;;3.58;;
33993;SDS011;20673;48.980;8.138;2022-08-25T16:20:51;4.03;;;3.72;;
33993;SDS011;20673;48.980;8.138;2022-08-25T16:23:18;3.98;;;3.60;;
33993;SDS011;20673;48.980;8.138;2022-08-25T16:25:45;4.72;;;3.75;;
33993;SDS011;20673;48.980;8.138;2022-08-25T16:28:12;3.92;;;3.62;;
33993;SDS011;20673;48.980;8.138;2022-08-25T16:30:44;3.85;;;3.45;;
33993;SDS011;20673;48.980;8.138;2022-08-25T16:33:13;3.90;;;3.52;;
33993;SDS011;20673;48.980;8.138;2022-08-25T16:35:41;4.33;;;3.95;;
33993;SDS011;20673;48.980;8.138;2022-08-25T16:38:08;3.83;;;3.52;;
33993;SDS011;20673;48.980;8.138;2022-08-25T16:40:37;4.42;;;3.72;;
33993;SDS011;20673;48.980;8.138;2022-08-25T16:43:07;7.65;;;4.12;;
33993;SDS011;20673;48.980;8.138;2022-08-25T16:45:35;4.12;;;3.72;;
33993;SDS011;20673;48.980;8.138;2022-08-25T16:48:02;4.55;;;3.77;;
33993;SDS011;20673;48.980;8.138;2022-08-25T16:50:30;6.10;;;3.92;;
33993;SDS011;20673;48.980;8.138;2022-08-25T16:52:57;3.90;;;3.58;;
33993;SDS011;20673;48.980;8.138;2022-08-25T16:55:41;5.37;;;3.83;;
33993;SDS011;20673;48.980;8.138;2022-08-25T16:58:08;3.77;;;3.47;;
33993;SDS011;20673;48.980;8.138;2022-08-25T17:00:35;4.95;;;4.20;;
33993;SDS011;20673;48.980;8.138;2022-08-25T17:03:03;4.62;;;3.98;;
33993;SDS011;20673;48.980;8.138;2022-08-25T17:05:31;3.75;;;3.45;;
33993;SDS011;20673;48.980;8.138;2022-08-25T17:08:00;4.20;;;3.30;;
33993;SDS011;20673;48.980;8.138;2022-08-25T17:10:45;4.37;;;3.98;;
33993;SDS011;20673;48.980;8.138;2022-08-25T17:13:12;5.50;;;3.72;;
33993;SDS011;20673;48.980;8.138;2022-08-25T17:15:39;3.45;;;3.15;;
33993;SDS011;20673;48.980;8.138;2022-08-25T17:18:09;4.33;;;3.95;;
33993;SDS011;20673;48.980;8.138;2022-08-25T17:20:35;3.58;;;3.05;;
33993;SDS011;20673;48.980;8.138;2022-08-25T17:23:02;5.72;;;3.10;;
33993;SDS011;20673;48.980;8.138;2022-08-25T17:25:32;3.80;;;3.50;;
33993;SDS011;20673;48.980;8.138;2022-08-25T17:28:02;6.12;;;3.65;;
33993;SDS011;20673;48.980;8.138;2022-08-25T17:30:28;4.35;;;3.27;;